createdAt,value
2022-11-14T00:01:02.099Z,3.70
2022-11-14T00:03:37.244Z,4.03
2022-11-14T00:06:12.652Z,3.70
2022-11-14T00:08:46.363Z,3.80
2022-11-14T00:11:21.927Z,3.53
2022-11-14T00:13:57.484Z,3.60
2022-11-14T00:16:31.634Z,3.20
2022-11-14T00:19:07.144Z,3.53
2022-11-14T00:21:48.381Z,3.40
2022-11-14T00:24:22.972Z,4.23
2022-11-14T00:26:58.742Z,3.70
2022-11-14T00:29:32.655Z,3.77
2022-11-14T00:32:07.915Z,4.13
2022-11-14T00:34:41.687Z,3.80
2022-11-14T00:37:16.529Z,3.97
2022-11-14T00:39:52.142Z,4.00
2022-11-14T00:42:27.637Z,3.70
2022-11-14T00:45:02.193Z,4.57
2022-11-14T00:47:36.149Z,4.47
2022-11-14T00:50:11.870Z,3.93
2022-11-14T00:52:49.208Z,3.80
2022-11-14T00:55:23.138Z,4.10
2022-11-14T00:57:58.926Z,3.83
2022-11-14T01:00:32.901Z,3.90
2022-11-14T01:03:06.578Z,3.90
2022-11-14T01:05:43.969Z,4.40
2022-11-14T01:08:21.467Z,4.00
2022-11-14T01:10:55.444Z,4.33
2022-11-14T01:13:34.549Z,3.80
2022-11-14T01:16:09.512Z,3.30
2022-11-14T01:18:47.581Z,3.77
2022-11-14T01:21:21.074Z,3.70
2022-11-14T01:23:54.977Z,3.77
2022-11-14T01:26:28.888Z,3.90
2022-11-14T01:29:04.216Z,3.83
2022-11-14T01:31:38.242Z,4.00
2022-11-14T01:34:12.890Z,3.80
2022-11-14T01:36:50.208Z,3.87
2022-11-14T01:39:25.735Z,4.00
2022-11-14T01:42:02.371Z,3.53
2022-11-14T01:44:48.859Z,3.60
2022-11-14T01:47:27.020Z,3.97
2022-11-14T01:50:06.316Z,3.87
2022-11-14T01:52:42.818Z,3.60
2022-11-14T01:55:16.954Z,3.70
2022-11-14T01:57:53.313Z,3.80
2022-11-14T02:00:32.194Z,3.83
2022-11-14T02:03:07.128Z,4.10
2022-11-14T02:05:42.031Z,4.07
2022-11-14T02:08:18.391Z,4.03
2022-11-14T02:10:52.498Z,3.90
2022-11-14T02:13:26.514Z,4.50
2022-11-14T02:16:06.158Z,4.37
2022-11-14T02:18:40.074Z,4.43
2022-11-14T02:21:15.521Z,4.37
2022-11-14T02:23:55.988Z,3.90
2022-11-14T02:26:34.303Z,4.30
2022-11-14T02:29:12.668Z,4.77
2022-11-14T02:31:46.641Z,3.77
2022-11-14T02:34:20.941Z,4.33
2022-11-14T02:36:58.072Z,4.07
2022-11-14T02:39:36.823Z,4.13
2022-11-14T02:42:10.834Z,4.40
2022-11-14T02:44:45.168Z,4.00
2022-11-14T02:47:21.736Z,3.80
2022-11-14T02:49:55.731Z,3.83
2022-11-14T02:52:30.868Z,3.97
2022-11-14T02:55:05.202Z,3.90
2022-11-14T02:57:40.137Z,3.43
2022-11-14T03:00:17.566Z,4.30
2022-11-14T03:02:51.730Z,4.20
2022-11-14T03:05:26.168Z,4.13
2022-11-14T03:08:01.801Z,4.03
2022-11-14T03:10:35.908Z,4.03
2022-11-14T03:13:10.296Z,3.70
2022-11-14T03:15:44.464Z,3.93
2022-11-14T03:18:18.363Z,3.70
2022-11-14T03:20:52.759Z,3.70
2022-11-14T03:23:28.688Z,4.20
2022-11-14T03:26:03.449Z,3.53
2022-11-14T03:28:39.576Z,3.43
2022-11-14T03:31:15.575Z,4.07
2022-11-14T03:33:49.080Z,3.70
2022-11-14T03:36:24.738Z,4.10
2022-11-14T03:39:00.533Z,4.20
2022-11-14T03:41:34.485Z,4.00
2022-11-14T03:44:12.281Z,3.80
2022-11-14T03:46:46.166Z,3.87
2022-11-14T03:49:20.360Z,3.73
2022-11-14T03:51:55.004Z,3.70
2022-11-14T03:54:30.119Z,3.53
2022-11-14T03:57:05.188Z,3.80
2022-11-14T03:59:38.959Z,3.53
2022-11-14T04:02:16.248Z,4.53
2022-11-14T04:04:49.867Z,3.97
2022-11-14T04:07:24.948Z,4.13
2022-11-14T04:10:02.841Z,3.57
2022-11-14T04:12:37.224Z,3.43
2022-11-14T04:15:12.127Z,3.97
2022-11-14T04:17:52.926Z,3.67
2022-11-14T04:20:26.864Z,3.73
2022-11-14T04:23:00.677Z,3.60
2022-11-14T04:25:39.393Z,3.50
2022-11-14T04:28:13.770Z,3.90
2022-11-14T04:30:48.135Z,3.90
2022-11-14T04:33:22.978Z,4.50
2022-11-14T04:35:56.582Z,4.10
2022-11-14T04:38:30.651Z,4.37
2022-11-14T04:41:11.471Z,4.60
2022-11-14T04:43:50.970Z,4.30
2022-11-14T04:46:25.066Z,4.30
2022-11-14T04:48:58.548Z,4.30
2022-11-14T04:51:32.267Z,4.23
2022-11-14T04:54:06.521Z,4.37
2022-11-14T04:56:41.988Z,4.57
2022-11-14T04:59:20.502Z,4.77
2022-11-14T05:01:54.751Z,4.47
2022-11-14T05:04:28.662Z,4.43
2022-11-14T05:07:02.407Z,4.27
2022-11-14T05:09:36.794Z,4.10
2022-11-14T05:12:11.840Z,4.57
2022-11-14T05:14:45.821Z,4.50
2022-11-14T05:17:19.628Z,4.43
2022-11-14T05:19:53.470Z,4.10
2022-11-14T05:22:27.548Z,4.47
2022-11-14T05:25:01.434Z,4.97
2022-11-14T05:27:36.949Z,5.00
2022-11-14T05:30:14.048Z,4.73
2022-11-14T05:32:47.685Z,5.63
2022-11-14T05:35:21.493Z,5.03
2022-11-14T05:38:00.049Z,4.63
2022-11-14T05:40:34.148Z,5.07
2022-11-14T05:43:09.654Z,5.13
2022-11-14T05:45:45.880Z,5.47
2022-11-14T05:48:19.456Z,5.87
2022-11-14T05:50:56.893Z,5.77
2022-11-14T05:53:35.146Z,5.63
2022-11-14T05:56:39.940Z,6.13
2022-11-14T05:59:15.502Z,5.50
2022-11-14T06:01:50.185Z,5.20
2022-11-14T06:04:25.250Z,5.60
2022-11-14T06:06:59.772Z,6.50
2022-11-14T06:09:35.218Z,5.07
2022-11-14T06:12:17.403Z,4.70
2022-11-14T06:14:53.508Z,4.97
2022-11-14T06:17:28.093Z,4.93
2022-11-14T06:20:07.675Z,4.93
2022-11-14T06:22:42.888Z,4.77
2022-11-14T06:25:18.160Z,5.13
2022-11-14T06:27:53.930Z,4.83
2022-11-14T06:30:31.180Z,5.07
2022-11-14T06:33:05.785Z,4.90
2022-11-14T06:35:39.612Z,5.30
2022-11-14T06:38:14.159Z,4.93
2022-11-14T06:40:48.209Z,5.03
2022-11-14T06:43:27.179Z,4.90
2022-11-14T06:46:17.052Z,4.90
2022-11-14T06:48:55.148Z,5.30
2022-11-14T06:51:29.463Z,5.33
2022-11-14T06:54:04.905Z,5.23
2022-11-14T06:56:41.580Z,5.20
2022-11-14T06:59:18.679Z,5.60
2022-11-14T07:01:54.533Z,5.00
2022-11-14T07:04:28.465Z,4.87
2022-11-14T07:07:03.842Z,5.70
2022-11-14T07:09:38.632Z,5.47
2022-11-14T07:12:12.911Z,5.07
2022-11-14T07:14:47.031Z,6.00
2022-11-14T07:17:30.751Z,5.47
2022-11-14T07:23:08.810Z,5.40
2022-11-14T07:25:43.212Z,5.60
2022-11-14T07:28:54.445Z,5.80
2022-11-14T07:34:26.877Z,5.17
2022-11-14T07:37:08.270Z,6.10
2022-11-14T07:39:56.533Z,5.13
2022-11-14T07:42:59.900Z,5.90
2022-11-14T07:45:36.160Z,5.63
2022-11-14T07:48:12.640Z,5.93
2022-11-14T07:51:12.271Z,5.90
2022-11-14T07:53:50.862Z,5.87
2022-11-14T07:56:38.479Z,5.97
2022-11-14T07:59:20.919Z,5.53
2022-11-14T08:02:13.245Z,5.90
2022-11-14T08:05:02.080Z,6.30
2022-11-14T08:07:39.062Z,6.87
2022-11-14T08:10:33.383Z,6.50
2022-11-14T08:13:31.575Z,6.30
2022-11-14T08:16:14.804Z,6.30
2022-11-14T08:18:51.950Z,5.87
2022-11-14T08:21:31.079Z,6.60
2022-11-14T08:24:13.808Z,6.43
2022-11-14T08:27:01.425Z,6.27
2022-11-14T08:29:41.878Z,6.73
2022-11-14T08:32:22.364Z,6.10
2022-11-14T08:35:03.774Z,6.33
2022-11-14T08:37:47.664Z,6.57
2022-11-14T08:40:46.513Z,6.80
2022-11-14T08:43:27.340Z,6.37
2022-11-14T08:46:10.708Z,6.60
2022-11-14T08:48:52.565Z,7.83
2022-11-14T08:51:49.221Z,6.57
2022-11-14T08:54:39.613Z,7.07
2022-11-14T08:57:30.291Z,7.10
2022-11-14T09:00:11.070Z,6.70
2022-11-14T09:03:18.306Z,7.83
2022-11-14T09:06:03.621Z,7.90
2022-11-14T09:08:49.412Z,7.83
2022-11-14T09:11:33.092Z,8.40
2022-11-14T09:14:29.209Z,7.07
2022-11-14T09:17:11.396Z,7.57
2022-11-14T09:20:17.466Z,9.07
2022-11-14T09:23:06.741Z,7.47
2022-11-14T09:25:43.122Z,7.37
2022-11-14T09:28:50.197Z,8.20
2022-11-14T09:31:33.607Z,7.43
2022-11-14T09:34:10.767Z,8.67
2022-11-14T09:37:05.213Z,8.70
2022-11-14T09:39:55.289Z,8.80
2022-11-14T09:43:05.521Z,9.07
2022-11-14T09:45:57.073Z,8.97
2022-11-14T09:48:43.788Z,9.50
2022-11-14T09:51:39.307Z,9.17
2022-11-14T09:54:32.749Z,9.10
2022-11-14T09:57:24.274Z,9.60
2022-11-14T10:00:05.557Z,9.40
2022-11-14T10:03:06.821Z,10.20
2022-11-14T10:06:33.099Z,10.23
2022-11-14T10:09:55.750Z,10.17
2022-11-14T10:13:12.380Z,9.50
2022-11-14T10:16:16.428Z,10.43
2022-11-14T10:19:26.558Z,9.87
2022-11-14T10:23:01.554Z,8.87
2022-11-14T10:25:59.591Z,9.27
2022-11-14T10:29:23.771Z,10.00
2022-11-14T10:32:25.325Z,8.47
2022-11-14T10:35:15.403Z,6.87
2022-11-14T10:38:34.494Z,7.90
2022-11-14T10:45:18.966Z,6.60
2022-11-14T10:48:57.599Z,6.67
2022-11-14T10:51:46.446Z,6.87
2022-11-14T10:58:00.531Z,6.67
2022-11-14T11:01:50.864Z,6.50
2022-11-14T11:04:37.211Z,6.50
2022-11-14T11:07:48.294Z,7.07
2022-11-14T11:10:48.712Z,7.43
2022-11-14T11:13:55.504Z,7.20
2022-11-14T11:17:36.122Z,6.97
2022-11-14T11:26:23.065Z,7.83
2022-11-14T11:47:41.835Z,7.17
2022-11-14T11:54:20.137Z,7.00
2022-11-14T11:58:04.129Z,7.83
2022-11-14T12:01:16.235Z,6.97
2022-11-14T12:06:12.481Z,6.50
2022-11-14T12:08:01.498Z,6.73
2022-11-14T12:14:58.115Z,6.97
2022-11-14T12:19:08.871Z,6.60
2022-11-14T12:22:47.707Z,5.90
2022-11-14T12:26:37.596Z,5.83
2022-11-14T12:32:58.938Z,6.63
2022-11-14T12:36:06.534Z,5.80
2022-11-14T12:39:07.568Z,6.07
2022-11-14T12:42:06.254Z,6.20
2022-11-14T12:44:55.798Z,6.30
2022-11-14T12:48:06.198Z,5.93
2022-11-14T12:54:59.295Z,4.90
2022-11-14T12:58:29.298Z,5.37
2022-11-14T13:05:01.493Z,4.83
2022-11-14T13:08:18.975Z,4.67
2022-11-14T13:11:00.424Z,4.80
2022-11-14T13:14:30.844Z,5.00
2022-11-14T13:21:33.037Z,5.13
2022-11-14T13:28:05.465Z,5.40
2022-11-14T13:31:26.494Z,4.83
2022-11-14T13:34:46.974Z,5.17
2022-11-14T13:38:17.265Z,5.73
2022-11-14T13:44:15.599Z,6.10
2022-11-14T13:46:04.668Z,5.13
2022-11-14T13:49:30.080Z,5.23
2022-11-14T13:52:11.139Z,5.37
2022-11-14T13:55:17.999Z,5.70
2022-11-14T13:59:21.443Z,5.93
2022-11-14T14:03:11.952Z,6.20
2022-11-14T14:06:28.649Z,5.97
2022-11-14T14:09:47.616Z,5.70
2022-11-14T14:13:02.808Z,5.10
2022-11-14T14:16:13.572Z,6.50
2022-11-14T14:19:18.717Z,6.17
2022-11-14T14:22:13.484Z,5.33
2022-11-14T14:25:21.890Z,6.23
2022-11-14T14:28:34.761Z,6.60
2022-11-14T14:35:01.418Z,5.63
2022-11-14T14:37:59.059Z,6.53
2022-11-14T14:41:10.134Z,6.77
2022-11-14T14:44:04.625Z,6.03
2022-11-14T14:46:51.353Z,6.50
2022-11-14T14:49:35.200Z,6.20
2022-11-14T14:52:39.085Z,6.10
2022-11-14T14:55:41.587Z,6.10
2022-11-14T14:58:32.872Z,5.83
2022-11-14T15:01:53.959Z,6.53
2022-11-14T15:04:48.096Z,5.77
2022-11-14T15:08:04.975Z,6.40
2022-11-14T15:10:53.540Z,6.00
2022-11-14T15:13:50.921Z,6.40
2022-11-14T15:16:39.168Z,6.20
2022-11-14T15:19:46.354Z,7.67
2022-11-14T15:22:48.120Z,6.43
2022-11-14T15:25:55.602Z,7.00
2022-11-14T15:29:33.720Z,6.20
2022-11-14T15:32:23.879Z,6.53
2022-11-14T15:35:35.498Z,6.37
2022-11-14T15:38:54.562Z,6.87
2022-11-14T15:41:38.913Z,6.97
2022-11-14T15:44:54.599Z,6.80
2022-11-14T15:47:49.819Z,6.53
2022-11-14T15:50:45.393Z,6.80
2022-11-14T15:53:35.697Z,6.13
2022-11-14T15:57:04.525Z,6.63
2022-11-14T16:00:29.482Z,5.87
2022-11-14T16:03:50.240Z,6.17
2022-11-14T16:07:01.330Z,6.20
2022-11-14T16:09:56.998Z,6.37
2022-11-14T16:12:59.278Z,6.33
2022-11-14T16:15:56.252Z,6.17
2022-11-14T16:18:55.775Z,6.20
2022-11-14T16:21:58.946Z,6.80
2022-11-14T16:25:02.368Z,6.50
2022-11-14T16:28:54.793Z,6.00
2022-11-14T16:31:44.657Z,5.50
2022-11-14T16:34:26.792Z,6.03
2022-11-14T16:37:32.654Z,6.67
2022-11-14T16:40:34.415Z,6.30
2022-11-14T16:43:24.163Z,5.90
2022-11-14T16:46:19.184Z,5.70
2022-11-14T16:49:09.558Z,6.00
2022-11-14T16:51:49.940Z,6.57
2022-11-14T16:54:29.670Z,6.40
2022-11-14T16:57:17.917Z,6.50
2022-11-14T17:00:05.939Z,6.60
2022-11-14T17:02:48.659Z,5.77
2022-11-14T17:05:37.014Z,5.60
2022-11-14T17:08:24.442Z,5.80
2022-11-14T17:11:30.196Z,6.20
2022-11-14T17:14:29.487Z,6.20
2022-11-14T17:17:05.855Z,6.43
2022-11-14T17:20:03.650Z,6.43
2022-11-14T17:22:46.283Z,6.30
2022-11-14T17:25:33.975Z,6.60
2022-11-14T17:29:20.152Z,6.10
2022-11-14T17:32:23.312Z,5.20
2022-11-14T17:35:52.560Z,5.97
2022-11-14T17:43:01.505Z,6.50
2022-11-14T17:46:01.802Z,6.73
2022-11-14T17:48:58.491Z,6.87
2022-11-14T17:55:05.718Z,6.33
2022-11-14T18:26:13.327Z,6.13
2022-11-14T18:29:36.392Z,6.23
2022-11-14T18:32:28.003Z,5.80
2022-11-14T18:35:14.653Z,6.67
2022-11-14T18:38:07.658Z,6.47
2022-11-14T18:41:20.503Z,6.30
2022-11-14T18:44:27.577Z,6.63
2022-11-14T18:47:29.235Z,6.43
2022-11-14T18:50:16.962Z,6.90
2022-11-14T18:53:02.334Z,6.60
2022-11-14T18:56:04.303Z,6.43
2022-11-14T18:58:48.247Z,6.80
2022-11-14T19:01:43.360Z,5.80
2022-11-14T19:04:21.880Z,5.83
2022-11-14T19:07:16.543Z,6.43
2022-11-14T19:09:52.478Z,6.43
2022-11-14T19:12:31.158Z,6.47
2022-11-14T19:15:13.026Z,6.77
2022-11-14T19:18:00.175Z,6.67
2022-11-14T19:21:04.696Z,6.20
2022-11-14T19:23:46.535Z,5.97
2022-11-14T19:26:34.395Z,6.03
2022-11-14T19:29:17.288Z,6.60
2022-11-14T19:32:00.440Z,6.27
2022-11-14T19:34:47.234Z,5.83
2022-11-14T19:40:20.563Z,5.30
2022-11-14T19:43:02.890Z,5.73
2022-11-14T19:45:49.392Z,5.87
2022-11-14T19:48:31.808Z,6.50
2022-11-14T19:51:15.820Z,6.00
2022-11-14T19:54:00.683Z,6.53
2022-11-14T19:56:42.964Z,7.07
2022-11-14T19:59:36.698Z,7.80
2022-11-14T20:02:32.993Z,6.50
2022-11-14T20:05:34.759Z,6.63
2022-11-14T20:08:22.591Z,6.90
2022-11-14T20:11:02.430Z,6.93
2022-11-14T20:13:51.685Z,6.77
2022-11-14T20:16:30.960Z,8.43
2022-11-14T20:19:06.684Z,6.97
2022-11-14T20:21:41.535Z,7.23
2022-11-14T20:24:23.285Z,6.73
2022-11-14T20:27:01.217Z,6.67
2022-11-14T20:29:41.302Z,6.63
2022-11-14T20:32:16.925Z,6.60
2022-11-14T20:34:57.106Z,6.07
2022-11-14T20:37:52.277Z,6.50
2022-11-14T20:40:31.415Z,8.00
2022-11-14T20:43:33.140Z,6.27
2022-11-14T20:46:28.349Z,6.13
2022-11-14T20:49:14.290Z,6.00
2022-11-14T20:51:55.977Z,6.87
2022-11-14T20:54:31.372Z,6.67
2022-11-14T20:57:11.342Z,6.67
2022-11-14T20:59:48.243Z,6.23
2022-11-14T21:02:34.078Z,6.10
2022-11-14T21:05:25.768Z,6.60
2022-11-14T21:08:03.344Z,6.10
2022-11-14T21:10:50.282Z,5.83
2022-11-14T21:13:51.822Z,5.30
2022-11-14T21:16:28.846Z,6.00
2022-11-14T21:19:26.567Z,6.37
2022-11-14T21:22:07.950Z,6.30
2022-11-14T21:24:56.796Z,5.90
2022-11-14T21:27:36.873Z,5.50
2022-11-14T21:30:27.669Z,6.00
2022-11-14T21:33:02.706Z,5.93
2022-11-14T21:36:11.246Z,5.87
2022-11-14T21:39:09.608Z,6.23
2022-11-14T21:41:53.642Z,7.07
2022-11-14T21:44:44.037Z,5.77
2022-11-14T21:47:30.157Z,6.00
2022-11-14T21:50:23.925Z,6.90
2022-11-14T21:53:17.889Z,6.47
2022-11-14T21:56:15.705Z,5.70
2022-11-14T21:59:13.848Z,5.73
2022-11-14T22:02:16.089Z,5.67
2022-11-14T22:04:52.955Z,5.77
2022-11-14T22:07:37.059Z,6.10
2022-11-14T22:10:19.948Z,5.20
2022-11-14T22:13:09.608Z,5.80
2022-11-14T22:15:45.568Z,5.53
2022-11-14T22:18:24.202Z,5.80
2022-11-14T22:21:11.610Z,6.27
2022-11-14T22:23:51.639Z,5.77
2022-11-14T22:26:30.989Z,5.90
2022-11-14T22:29:18.023Z,5.60
2022-11-14T22:32:00.438Z,4.97
2022-11-14T22:34:48.354Z,5.23
2022-11-14T22:37:35.652Z,5.50
2022-11-14T22:40:24.001Z,4.53
2022-11-14T22:43:03.556Z,5.40
2022-11-14T22:45:51.020Z,5.40
2022-11-14T22:48:53.444Z,5.20
2022-11-14T22:51:49.070Z,5.27
2022-11-14T22:57:49.862Z,4.77
2022-11-14T23:01:12.784Z,4.10
2022-11-14T23:04:04.595Z,4.10
2022-11-14T23:06:43.044Z,4.30
2022-11-14T23:09:24.580Z,4.23
2022-11-14T23:12:03.803Z,4.20
2022-11-14T23:14:44.168Z,4.47
2022-11-14T23:17:34.587Z,4.10
2022-11-14T23:20:24.561Z,3.87
2022-11-14T23:23:24.674Z,3.73
2022-11-14T23:26:26.476Z,3.80
2022-11-14T23:29:30.182Z,3.63
2022-11-14T23:32:20.244Z,4.37
2022-11-14T23:35:32.944Z,3.83
2022-11-14T23:38:23.531Z,3.47
2022-11-14T23:41:35.120Z,4.00
2022-11-14T23:44:22.711Z,3.80
2022-11-14T23:47:02.832Z,3.57
2022-11-14T23:49:53.991Z,4.10
2022-11-14T23:52:35.901Z,3.70
2022-11-14T23:55:18.419Z,3.73
2022-11-14T23:58:17.586Z,3.50
